Silver Spring, MD (20910)

8:09 AM EST on November 17, 2019 (GMT -0500)
Woodside Park, Silver Spring 20910 | | Change Station

Elev 354 ft 39.01 °N, 77.03 °W | Updated 9 minutes ago

Overcast
Overcast
34.4 °F
Feels Like 34 °F
N
2
Wind Variable Wind from NNW
Gusts 9.0 mph

Today
High -- | Low -- °F
--% Chance of Precip.
Yesterday
High -- | Low -- °F
Precip. -- in
Pressure 30.28 in
Visibility 10.0 miles
Clouds Scattered Clouds 2000 ft
Overcast 3500 ft
Windchill 34 °F
Dew Point 20 °F
Humidity 55%
Rainfall 0.00 in
Snow Depth Not available.
6:52 AM 4:52 PM
Waning Gibbous, 75% visible
METAR KCGS 171255Z AUTO 04005G14KT 10SM SCT020 OVC035 02/M10 A3028 RMK AO1 T00151100
Pressure 30.28 in
Visibility 10.0 miles
Clouds Scattered Clouds 2000 ft
Overcast 3500 ft
Windchill 34 °F
Dew Point 20 °F
Humidity 55%
Rainfall 0.00 in
Snow Depth Not available.
6:52 AM 4:52 PM
Waning Gibbous, 75% visible
METAR KCGS 171255Z AUTO 04005G14KT 10SM SCT020 OVC035 02/M10 A3028 RMK AO1 T00151100

Get Severe Weather Alerts

Thanks for signing up!

Be on the lookout for a verification email in your inbox.

You'll start receiving the daily forecast at 6 AM.

×

10-Day Weather Forecast

Almanac

Astronomy

Nov. 17, 2019 Rise Set
Actual Time
Civil Twilight
Nautical Twilight
Astronomical Twilight
Moon
Length of Visible Light
Length of Day
Tomorrow will be .
, % of the Moon is Illuminated

Today's Extremes

State Highs State Lows

Community

WunderPhotos

Category 6

Welcome to Category 6. This is the collective home for Weather Underground's featured writeups by Dr. Jeff Masters (right), Bob Henson (left), Chris Burt, and other regular contributors.

Nearby

Air Quality

  Air Quality AQ Index Pollutant
Not available.

Snow Depth

Station Depth Elevation

Earthquake Activity

City Distance Mag. Time & Date
Minimum magnitude displayed is 2.5.

Coastal Water Temperatures

Place Temperature

Stations

Nearby Weather Stations

Station Location Temp. Windchill Dew Point Humidity Wind Precip. Elev Updated Type
                   

Watches & Warnings

There are currently no watches in effect.